KHYI

San Marcos Regional Airport

Austin, Texas, USA
METAR KHYI 232200Z 16009KT 10SM BR SCT014 SCT026 BKN033 23/19 A3002 RMK AO2 $
Observed Flight Rules
Feb-23 @ 22:00 UTC (31 minutes ago) Visual Flight Rules
Wind Visibility Clouds Conditions
160° at 9 knots 10 miles
  • Scattered at 1,400' AGL
  • Scattered at 2,600' AGL
  • Broken at 3,300' AGL
  • Mist
Temperatures Readings
Current 23°C / 73°F
Dewpoint 19°C / 66°F
Humidity 78%
Altimeter 30.02" Hg
Pressure 1017 hPa
Elevation 182
METAR KHYI 232200Z 16009KT 10SM BR SCT014 SCT026 BKN033 23/19 A3002 RMK AO2 $
Observed Flight Rules
Feb-23 @ 22:00 UTC
(31 minutes ago)
VFR
Wind Visibility
160° at 9 knots 10 miles
Clouds
  • Scattered at 1,400' AGL
  • Scattered at 2,600' AGL
  • Broken at 3,300' AGL
Conditions
  • Mist
Temperature Dewpoint
23°C / 73°F 19°C / 66°F
Humidity Altimeter Pressure
78% 30.02" Hg 1017 hPa